createdAt,value
2018-01-07T00:01:27.891Z,47.54
2018-01-07T00:04:29.775Z,48.00
2018-01-07T00:07:31.782Z,47.86
2018-01-07T00:10:33.879Z,47.80
2018-01-07T00:13:35.736Z,47.73
2018-01-07T00:16:38.051Z,47.80
2018-01-07T00:19:39.914Z,47.90
2018-01-07T00:22:41.806Z,47.54
2018-01-07T00:25:43.676Z,47.98
2018-01-07T00:28:45.555Z,47.55
2018-01-07T00:31:47.455Z,47.90
2018-01-07T00:34:49.327Z,47.61
2018-01-07T00:37:51.223Z,48.08
2018-01-07T00:40:53.099Z,48.04
2018-01-07T00:43:55.012Z,47.54
2018-01-07T00:46:56.871Z,48.05
2018-01-07T00:49:58.763Z,47.76
2018-01-07T00:53:00.612Z,47.51
2018-01-07T00:56:02.498Z,47.91
2018-01-07T00:59:04.351Z,48.11
2018-01-07T01:02:06.248Z,47.76
2018-01-07T01:05:08.119Z,48.12
2018-01-07T01:08:10.308Z,47.62
2018-01-07T01:11:12.159Z,48.13
2018-01-07T01:14:14.050Z,47.79
2018-01-07T01:17:15.931Z,47.97
2018-01-07T01:20:17.814Z,48.04
2018-01-07T01:23:19.704Z,47.72
2018-01-07T01:26:21.564Z,47.92
2018-01-07T01:29:23.508Z,47.58
2018-01-07T01:32:25.376Z,47.93
2018-01-07T01:35:27.268Z,47.66
2018-01-07T01:38:29.154Z,47.85
2018-01-07T01:41:31.024Z,48.03
2018-01-07T01:44:33.167Z,48.15
2018-01-07T01:47:35.043Z,47.65
2018-01-07T01:50:36.923Z,47.94
2018-01-07T01:53:38.779Z,48.11
2018-01-07T01:56:40.659Z,47.98
2018-01-07T01:59:42.539Z,47.77
2018-01-07T02:02:44.412Z,47.76
2018-01-07T02:05:46.287Z,47.59
2018-01-07T02:08:48.149Z,47.75
2018-01-07T02:11:50.051Z,48.03
2018-01-07T02:14:51.903Z,47.62
2018-01-07T02:17:53.975Z,47.79
2018-01-07T02:20:55.836Z,47.66
2018-01-07T02:23:57.732Z,47.83
2018-01-07T02:26:59.600Z,47.62
2018-01-07T02:30:01.486Z,47.98
2018-01-07T02:33:03.340Z,48.13
2018-01-07T02:36:05.210Z,47.91
2018-01-07T02:39:07.098Z,47.81
2018-01-07T02:42:08.964Z,47.76
2018-01-07T02:45:10.844Z,48.04
2018-01-07T02:48:13.061Z,47.99
2018-01-07T02:51:14.926Z,48.14
2018-01-07T02:54:16.799Z,47.77
2018-01-07T02:57:18.663Z,47.72
2018-01-07T03:00:20.552Z,48.01
2018-01-07T03:03:22.422Z,47.95
2018-01-07T03:06:24.323Z,48.09
2018-01-07T03:09:26.187Z,47.94
2018-01-07T03:12:28.081Z,47.88
2018-01-07T03:15:29.956Z,47.84
2018-01-07T03:18:31.831Z,48.08
2018-01-07T03:21:33.687Z,48.19
2018-01-07T03:24:35.568Z,47.85
2018-01-07T03:27:37.431Z,48.02
2018-01-07T03:30:39.392Z,47.68
2018-01-07T03:33:41.239Z,47.63
2018-01-07T03:36:43.127Z,47.79
2018-01-07T03:39:45.012Z,48.17
2018-01-07T03:42:46.904Z,48.15
2018-01-07T03:45:48.772Z,47.70
2018-01-07T03:48:50.659Z,47.87
2018-01-07T03:51:52.512Z,47.75
2018-01-07T03:54:54.395Z,47.75
2018-01-07T03:57:56.290Z,48.12
2018-01-07T04:00:58.154Z,48.02
2018-01-07T04:04:00.068Z,48.12
2018-01-07T04:07:01.919Z,48.04
2018-01-07T04:10:03.799Z,48.04
2018-01-07T04:13:05.674Z,47.84
2018-01-07T04:16:07.568Z,47.82
2018-01-07T04:19:11.643Z,47.83
2018-01-07T04:22:13.523Z,47.94
2018-01-07T04:25:15.420Z,47.93
2018-01-07T04:28:17.292Z,47.84
2018-01-07T04:31:19.178Z,47.83
2018-01-07T04:34:21.032Z,47.91
2018-01-07T04:37:22.926Z,48.20
2018-01-07T04:40:24.792Z,47.79
2018-01-07T04:43:26.676Z,48.02
2018-01-07T04:46:28.538Z,48.22
2018-01-07T04:49:30.497Z,48.29
2018-01-07T04:52:32.446Z,47.87
2018-01-07T04:55:34.336Z,47.92
2018-01-07T04:58:36.198Z,47.93
2018-01-07T05:01:38.269Z,48.21
2018-01-07T05:04:40.130Z,48.27
2018-01-07T05:07:42.054Z,48.31
2018-01-07T05:10:43.915Z,48.18
2018-01-07T05:13:45.796Z,47.76
2018-01-07T05:16:47.691Z,47.89
2018-01-07T05:19:49.559Z,48.23
2018-01-07T05:22:51.436Z,48.13
2018-01-07T05:25:53.321Z,48.08
2018-01-07T05:28:55.196Z,48.09
2018-01-07T05:31:57.078Z,48.17
2018-01-07T05:34:58.943Z,47.58
2018-01-07T05:38:00.828Z,47.94
2018-01-07T05:41:02.861Z,47.60
2018-01-07T05:44:04.719Z,47.77
2018-01-07T05:47:06.604Z,47.96
2018-01-07T05:50:08.477Z,48.20
2018-01-07T05:53:10.340Z,48.01
2018-01-07T05:56:12.464Z,47.77
2018-01-07T05:59:14.344Z,48.02
2018-01-07T06:02:16.246Z,48.02
2018-01-07T06:05:18.112Z,47.93
2018-01-07T06:08:19.991Z,48.15
2018-01-07T06:11:21.875Z,48.10
2018-01-07T06:14:23.742Z,47.82
2018-01-07T06:17:25.635Z,48.09
2018-01-07T06:20:27.507Z,48.11
2018-01-07T06:23:29.387Z,48.14
2018-01-07T06:26:31.294Z,47.71
2018-01-07T06:29:33.143Z,47.73
2018-01-07T06:32:35.023Z,48.15
2018-01-07T06:35:37.220Z,47.73
2018-01-07T06:38:39.115Z,47.79
2018-01-07T06:41:41.003Z,47.87
2018-01-07T06:44:42.863Z,48.06
2018-01-07T06:47:44.768Z,48.24
2018-01-07T06:50:46.638Z,48.19
2018-01-07T06:53:48.524Z,48.02
2018-01-07T06:56:50.400Z,48.07
2018-01-07T06:59:52.300Z,47.74
2018-01-07T07:02:54.180Z,47.78
2018-01-07T07:05:56.076Z,47.94
2018-01-07T07:08:57.922Z,47.54
2018-01-07T07:11:59.804Z,47.91
2018-01-07T07:15:01.687Z,47.70
2018-01-07T07:18:03.558Z,47.73
2018-01-07T07:21:05.439Z,47.73
2018-01-07T07:24:07.303Z,47.55
2018-01-07T07:27:09.247Z,47.99
2018-01-07T07:30:11.127Z,48.09
2018-01-07T07:33:13.043Z,48.02
2018-01-07T07:36:14.907Z,47.82
2018-01-07T07:39:16.797Z,47.52
2018-01-07T07:42:18.844Z,47.59
2018-01-07T07:45:20.702Z,47.53
2018-01-07T07:48:22.739Z,47.47
2018-01-07T07:51:24.607Z,47.46
2018-01-07T07:54:26.498Z,47.42
2018-01-07T07:57:28.387Z,47.44
2018-01-07T08:00:30.532Z,47.78
2018-01-07T08:03:32.399Z,47.84
2018-01-07T08:06:34.291Z,47.63
2018-01-07T08:09:36.163Z,47.61
2018-01-07T08:12:38.048Z,47.72
2018-01-07T08:15:39.907Z,47.42
2018-01-07T08:18:41.780Z,47.58
2018-01-07T08:21:43.661Z,47.39
2018-01-07T08:24:45.527Z,47.35
2018-01-07T08:27:47.384Z,47.34
2018-01-07T08:30:49.291Z,47.31
2018-01-07T08:33:51.224Z,47.75
2018-01-07T08:36:53.056Z,47.33
2018-01-07T08:39:54.935Z,47.72
2018-01-07T08:42:56.843Z,47.62
2018-01-07T08:45:58.735Z,47.58
2018-01-07T08:49:00.696Z,47.73
2018-01-07T08:52:02.609Z,47.65
2018-01-07T08:55:04.460Z,47.37
2018-01-07T08:58:06.356Z,47.44
2018-01-07T09:01:08.268Z,47.31
2018-01-07T09:04:10.144Z,47.55
2018-01-07T09:07:12.052Z,47.56
2018-01-07T09:10:13.902Z,47.61
2018-01-07T09:13:15.871Z,47.26
2018-01-07T09:16:17.758Z,47.59
2018-01-07T09:19:19.680Z,47.13
2018-01-07T09:22:21.543Z,47.27
2018-01-07T09:25:23.428Z,47.28
2018-01-07T09:28:25.476Z,47.14
2018-01-07T09:31:27.338Z,47.38
2018-01-07T09:34:29.198Z,47.60
2018-01-07T09:37:31.250Z,47.47
2018-01-07T09:40:33.178Z,47.30
2018-01-07T09:43:35.248Z,47.59
2018-01-07T09:46:37.103Z,47.04
2018-01-07T09:49:39.189Z,47.07
2018-01-07T09:52:41.104Z,47.36
2018-01-07T09:55:43.047Z,47.47
2018-01-07T09:58:44.955Z,47.64
2018-01-07T10:01:46.884Z,47.51
2018-01-07T10:04:49.132Z,47.07
2018-01-07T10:07:51.063Z,47.48
2018-01-07T10:10:52.985Z,47.44
2018-01-07T10:13:55.259Z,47.62
2018-01-07T10:16:57.119Z,46.97
2018-01-07T10:19:59.244Z,47.44
2018-01-07T10:23:01.225Z,47.14
2018-01-07T10:26:03.099Z,47.14
2018-01-07T10:29:05.222Z,47.08
2018-01-07T10:32:07.308Z,47.45
2018-01-07T10:35:09.231Z,46.93
2018-01-07T10:38:11.263Z,46.88
2018-01-07T10:41:13.153Z,47.05
2018-01-07T10:44:15.284Z,47.00
2018-01-07T10:47:17.556Z,47.30
2018-01-07T10:50:19.422Z,47.28
2018-01-07T10:53:21.327Z,46.90
2018-01-07T10:56:23.206Z,47.08
2018-01-07T10:59:25.083Z,46.86
2018-01-07T11:02:31.114Z,47.21
2018-01-07T11:05:33.007Z,46.85
2018-01-07T11:08:34.872Z,46.93
2018-01-07T11:11:36.760Z,46.67
2018-01-07T11:14:38.636Z,46.53
2018-01-07T11:17:42.039Z,46.99
2018-01-07T11:20:44.249Z,46.31
2018-01-07T11:23:46.132Z,46.30
2018-01-07T11:26:48.068Z,46.47
2018-01-07T11:29:49.916Z,46.85
2018-01-07T11:32:52.025Z,46.41
2018-01-07T11:35:53.878Z,46.48
2018-01-07T11:38:55.779Z,46.80
2018-01-07T11:41:57.697Z,46.56
2018-01-07T11:44:59.561Z,46.38
2018-01-07T11:48:01.581Z,46.79
2018-01-07T11:51:03.489Z,46.85
2018-01-07T11:54:05.440Z,46.89
2018-01-07T11:57:07.333Z,46.56
2018-01-07T12:00:09.195Z,46.67
2018-01-07T12:03:11.347Z,46.25
2018-01-07T12:06:13.273Z,45.90
2018-01-07T12:09:15.417Z,46.32
2018-01-07T12:12:17.245Z,46.22
2018-01-07T12:15:19.146Z,46.22
2018-01-07T12:18:21.089Z,46.60
2018-01-07T12:21:23.871Z,46.23
2018-01-07T12:24:25.743Z,46.11
2018-01-07T12:27:27.716Z,46.74
2018-01-07T12:30:29.647Z,46.32
2018-01-07T12:33:31.531Z,46.04
2018-01-07T12:36:33.454Z,45.99
2018-01-07T12:39:35.394Z,45.38
2018-01-07T12:42:37.258Z,45.67
2018-01-07T12:45:39.173Z,45.70
2018-01-07T12:48:41.083Z,45.92
2018-01-07T12:51:43.024Z,46.03
2018-01-07T12:54:45.047Z,46.10
2018-01-07T12:57:46.948Z,46.20
2018-01-07T13:00:49.155Z,46.03
2018-01-07T13:03:51.024Z,45.83
2018-01-07T13:06:52.904Z,45.97
2018-01-07T13:09:54.823Z,45.85
2018-01-07T13:12:56.732Z,46.01
2018-01-07T13:15:58.803Z,46.32
2018-01-07T13:19:00.659Z,46.23
2018-01-07T13:22:02.587Z,46.59
2018-01-07T13:25:04.464Z,46.63
2018-01-07T13:28:06.415Z,46.57
2018-01-07T13:31:08.320Z,46.45
2018-01-07T13:34:10.208Z,46.38
2018-01-07T13:37:12.591Z,46.74
2018-01-07T13:40:14.456Z,46.80
2018-01-07T13:43:16.404Z,46.63
2018-01-07T13:46:18.301Z,46.95
2018-01-07T13:49:20.147Z,46.48
2018-01-07T13:52:22.048Z,46.14
2018-01-07T13:55:24.019Z,46.53
2018-01-07T13:58:25.912Z,46.87
2018-01-07T14:01:27.778Z,46.76
2018-01-07T14:04:29.672Z,46.81
2018-01-07T14:07:31.557Z,46.41
2018-01-07T14:10:33.541Z,46.46
2018-01-07T14:13:35.444Z,46.36
2018-01-07T14:16:37.323Z,46.47
2018-01-07T14:19:39.212Z,46.75
2018-01-07T14:22:41.135Z,46.44
2018-01-07T14:25:43.003Z,46.77
2018-01-07T14:28:44.936Z,46.74
2018-01-07T14:31:46.936Z,46.42
2018-01-07T14:34:48.852Z,46.21
2018-01-07T14:37:50.796Z,46.66
2018-01-07T14:40:52.759Z,46.67
2018-01-07T14:43:54.627Z,46.72
2018-01-07T14:46:56.683Z,46.15
2018-01-07T14:49:58.553Z,46.24
2018-01-07T14:53:00.435Z,46.47
2018-01-07T14:56:02.319Z,46.42
2018-01-07T14:59:04.223Z,46.21
2018-01-07T15:02:06.128Z,46.36
2018-01-07T15:05:08.015Z,46.39
2018-01-07T15:08:09.943Z,46.41
2018-01-07T15:11:11.880Z,46.33
2018-01-07T15:14:13.870Z,46.12
2018-01-07T15:17:15.735Z,46.20
2018-01-07T15:20:17.867Z,46.21
2018-01-07T15:23:19.738Z,46.70
2018-01-07T15:26:22.747Z,46.49
2018-01-07T15:29:24.627Z,46.60
2018-01-07T15:32:26.506Z,46.16
2018-01-07T15:35:28.378Z,46.06
2018-01-07T15:38:30.331Z,46.74
2018-01-07T15:41:32.202Z,46.63
2018-01-07T15:44:34.989Z,46.77
2018-01-07T15:47:36.895Z,46.77
2018-01-07T15:50:38.987Z,46.87
2018-01-07T15:53:40.851Z,46.39
2018-01-07T15:56:42.731Z,46.74
2018-01-07T15:59:44.578Z,46.79
2018-01-07T16:02:46.473Z,46.72
2018-01-07T16:05:48.345Z,46.37
2018-01-07T16:08:50.228Z,46.47
2018-01-07T16:11:52.120Z,46.60
2018-01-07T16:14:54.008Z,46.58
2018-01-07T16:17:55.871Z,46.34
2018-01-07T16:20:57.746Z,46.43
2018-01-07T16:23:59.622Z,45.67
2018-01-07T16:27:01.516Z,46.02
2018-01-07T16:30:03.413Z,45.91
2018-01-07T16:33:05.390Z,46.38
2018-01-07T16:36:07.296Z,46.20
2018-01-07T16:39:09.218Z,46.35
2018-01-07T16:42:11.123Z,46.23
2018-01-07T16:45:12.993Z,46.21
2018-01-07T16:48:14.867Z,46.51
2018-01-07T16:51:16.728Z,46.32
2018-01-07T16:54:18.640Z,46.56
2018-01-07T16:57:20.556Z,46.41
2018-01-07T17:00:22.564Z,46.07
2018-01-07T17:03:24.438Z,46.52
2018-01-07T17:06:26.356Z,46.57
2018-01-07T17:09:28.220Z,46.54
2018-01-07T17:12:30.548Z,46.15
2018-01-07T17:15:32.419Z,46.42
2018-01-07T17:18:34.327Z,46.23
2018-01-07T17:21:36.222Z,46.16
2018-01-07T17:24:38.115Z,46.32
2018-01-07T17:27:39.963Z,46.50
2018-01-07T17:30:42.747Z,46.21
2018-01-07T17:33:44.632Z,46.36
2018-01-07T17:36:46.502Z,46.50
2018-01-07T17:39:48.951Z,46.13
2018-01-07T17:42:51.866Z,46.82
2018-01-07T17:45:53.777Z,46.67
2018-01-07T17:48:55.644Z,46.71
2018-01-07T17:51:57.528Z,46.79
2018-01-07T17:54:59.391Z,46.65
2018-01-07T17:58:01.339Z,46.57
2018-01-07T18:01:03.203Z,46.44
2018-01-07T18:04:05.107Z,46.18
2018-01-07T18:07:07.045Z,45.99
2018-01-07T18:10:08.949Z,46.22
2018-01-07T18:13:10.812Z,46.03
2018-01-07T18:16:12.743Z,45.94
2018-01-07T18:19:14.635Z,46.23
2018-01-07T18:22:16.516Z,46.38
2018-01-07T18:25:18.555Z,46.52
2018-01-07T18:28:20.461Z,46.11
2018-01-07T18:31:22.356Z,46.44
2018-01-07T18:34:24.227Z,46.48
2018-01-07T18:37:26.168Z,46.05
2018-01-07T18:40:28.005Z,46.61
2018-01-07T18:43:29.899Z,46.45
2018-01-07T18:46:31.927Z,45.95
2018-01-07T18:49:33.804Z,46.42
2018-01-07T18:52:35.693Z,46.14
2018-01-07T18:55:37.558Z,46.01
2018-01-07T18:58:39.618Z,46.00
2018-01-07T19:01:41.478Z,45.98
2018-01-07T19:04:43.401Z,46.30
2018-01-07T19:07:45.263Z,46.00
2018-01-07T19:10:47.171Z,46.28
2018-01-07T19:13:49.020Z,46.21
2018-01-07T19:16:50.909Z,46.14
2018-01-07T19:19:52.784Z,46.36
2018-01-07T19:22:54.684Z,46.56
2018-01-07T19:25:56.538Z,46.18
2018-01-07T19:28:58.436Z,46.32
2018-01-07T19:32:00.489Z,46.82
2018-01-07T19:35:02.441Z,46.68
2018-01-07T19:38:04.336Z,46.91
2018-01-07T19:41:06.238Z,46.75
2018-01-07T19:44:09.110Z,46.57
2018-01-07T19:47:11.278Z,46.53
2018-01-07T19:50:13.123Z,46.25
2018-01-07T19:53:15.079Z,46.24
2018-01-07T19:56:16.972Z,46.26
2018-01-07T19:59:18.843Z,46.63
2018-01-07T20:02:20.855Z,46.87
2018-01-07T20:05:22.722Z,46.31
2018-01-07T20:08:24.607Z,46.79
2018-01-07T20:11:26.551Z,46.33
2018-01-07T20:14:28.456Z,46.79
2018-01-07T20:17:30.375Z,46.32
2018-01-07T20:20:32.452Z,46.68
2018-01-07T20:23:34.316Z,46.91
2018-01-07T20:26:36.396Z,46.70
2018-01-07T20:29:38.312Z,46.90
2018-01-07T20:32:40.218Z,46.45
2018-01-07T20:35:42.125Z,46.98
2018-01-07T20:38:44.015Z,46.72
2018-01-07T20:41:45.910Z,46.64
2018-01-07T20:44:48.084Z,46.47
2018-01-07T20:47:49.939Z,46.76
2018-01-07T20:50:52.062Z,46.48
2018-01-07T20:53:53.912Z,46.82
2018-01-07T20:56:55.788Z,47.02
2018-01-07T20:59:57.676Z,46.81
2018-01-07T21:02:59.570Z,46.80
2018-01-07T21:06:01.466Z,46.93
2018-01-07T21:09:03.403Z,46.88
2018-01-07T21:12:05.297Z,46.65
2018-01-07T21:15:07.184Z,46.57
2018-01-07T21:18:09.048Z,46.51
2018-01-07T21:21:10.935Z,46.70
2018-01-07T21:24:12.811Z,46.72
2018-01-07T21:27:14.711Z,47.09
2018-01-07T21:30:16.579Z,46.51
2018-01-07T21:33:18.471Z,46.55
2018-01-07T21:36:20.334Z,46.68
2018-01-07T21:39:22.247Z,46.56
2018-01-07T21:42:24.114Z,46.93
2018-01-07T21:45:25.985Z,46.98
2018-01-07T21:48:27.920Z,47.01
2018-01-07T21:51:29.784Z,46.51
2018-01-07T21:54:31.681Z,46.50
2018-01-07T21:57:34.148Z,46.36
2018-01-07T22:00:36.883Z,46.70
2018-01-07T22:03:38.735Z,46.84
2018-01-07T22:06:40.915Z,46.94
2018-01-07T22:09:42.759Z,46.52
2018-01-07T22:12:44.948Z,46.92
2018-01-07T22:15:46.816Z,46.70
2018-01-07T22:18:48.703Z,46.47
2018-01-07T22:21:50.567Z,46.76
2018-01-07T22:24:52.450Z,46.96
2018-01-07T22:27:54.328Z,46.87
2018-01-07T22:30:56.214Z,46.88
2018-01-07T22:33:58.100Z,46.81
2018-01-07T22:36:59.954Z,46.70
2018-01-07T22:40:01.884Z,46.98
2018-01-07T22:43:03.751Z,46.64
2018-01-07T22:46:06.543Z,46.92
2018-01-07T22:49:08.400Z,46.92
2018-01-07T22:52:10.291Z,46.91
2018-01-07T22:55:12.179Z,46.61
2018-01-07T22:58:14.035Z,46.51
2018-01-07T23:01:15.912Z,46.74
2018-01-07T23:04:17.771Z,46.62
2018-01-07T23:07:19.660Z,46.65
2018-01-07T23:10:21.524Z,46.60
2018-01-07T23:13:23.411Z,46.87
2018-01-07T23:16:25.329Z,46.83
2018-01-07T23:19:27.411Z,46.61
2018-01-07T23:22:29.282Z,46.78
2018-01-07T23:25:31.159Z,46.84
2018-01-07T23:28:33.033Z,46.61
2018-01-07T23:31:35.054Z,46.61
2018-01-07T23:34:36.928Z,46.79
2018-01-07T23:37:38.815Z,46.82
2018-01-07T23:40:40.714Z,46.53
2018-01-07T23:43:42.599Z,46.82
2018-01-07T23:46:44.478Z,46.75
2018-01-07T23:49:46.347Z,46.84
2018-01-07T23:52:48.240Z,47.00
2018-01-07T23:55:50.095Z,46.82
2018-01-07T23:58:52.148Z,46.58
